Terminal Aerodrome Forecast
Issued by NWS Bismarck, ND

Home | Current Version | Previous Version | Text Only | Print | Product List | Glossary Off
Versions: 1 2 3 4 5 6 7 8 9 10 11 12 13 14 15 16 17 18

285
FTUS43 KBIS 270602 AAD
TAFISN
TAF AMD
KISN 270602Z 2706/2806 02006KT P6SM SCT030 OVC040
      TEMPO 2706/2710 3SM -RA BR SCT003 BKN010 OVC040
     FM271100 06006KT 3SM -RASN BR OVC015
     FM271400 06009KT 5SM -RA BR OVC025
     FM271600 06011KT P6SM -RA OVC035
     FM280300 05007KT P6SM -RA OVC050=

USA.gov is the U.S. government's official web portal to all federal, state and local government web resources and services.